Time;durP1;ratioP1;P1;durP2;ratioP2;P2;SDS_P1;SDS_P2;PMS_P1;PMS_P2;Temp;Humidity;BMP_temperature;BMP_pressure;BME280_temperature;BME280_humidity;BME280_pressure;Samples;Min_cycle;Max_cycle;Signal;HPM_P1;HPM_P2
2022/11/08 00:02:09;;;;;;;5.85;3.75;;;28.00;94.60;;;;;;5076849;28;20066;-45
2022/11/08 00:04:35;;;;;;;7.00;4.03;;;28.00;94.50;;;;;;5071473;28;20053;-41
2022/11/08 00:15:17;;;;;;;10.48;3.15;;;28.00;94.50;;;;;;5083482;28;20043;-45
2022/11/08 00:17:44;;;;;;;8.00;3.10;;;28.00;94.50;;;;;;5083505;28;20024;-40
2022/11/08 00:20:11;;;;;;;5.03;2.97;;;28.00;94.50;;;;;;5083343;28;20061;-40
2022/11/08 00:22:37;;;;;;;5.85;3.17;;;28.00;94.50;;;;;;5077000;28;20102;-41
2022/11/08 00:25:04;;;;;;;6.35;2.90;;;28.00;94.50;;;;;;5070851;28;20036;-39
2022/11/08 00:27:31;;;;;;;5.22;2.80;;;28.00;94.30;;;;;;5062856;28;20186;-38
2022/11/08 00:29:57;;;;;;;9.00;2.90;;;28.00;94.30;;;;;;5063456;28;20040;-47
2022/11/08 00:32:25;;;;;;;7.78;3.00;;;28.00;94.30;;;;;;5063437;28;20033;-46
2022/11/08 00:34:53;;;;;;;7.88;2.83;;;28.00;94.40;;;;;;5063033;28;20036;-42
2022/11/08 00:37:21;;;;;;;9.70;4.22;;;28.00;94.40;;;;;;5074638;28;20025;-37
2022/11/08 00:39:48;;;;;;;14.50;6.28;;;28.00;94.30;;;;;;5070736;28;20028;-46
2022/11/08 00:42:15;;;;;;;17.42;6.78;;;28.00;94.20;;;;;;5083245;28;20024;-38
2022/11/08 00:44:42;;;;;;;10.15;4.30;;;28.00;94.20;;;;;;5084549;28;20033;-39
2022/11/08 00:47:09;;;;;;;10.23;4.20;;;28.00;94.20;;;;;;5087291;28;20100;-43
2022/11/08 00:49:36;;;;;;;8.02;4.05;;;28.00;94.20;;;;;;5085111;28;20240;-42
2022/11/08 00:52:02;;;;;;;9.57;3.70;;;28.00;94.20;;;;;;5081089;28;20099;-45
2022/11/08 00:54:29;;;;;;;7.53;3.67;;;28.00;94.10;;;;;;5086834;28;20029;-40
2022/11/08 00:56:56;;;;;;;8.98;3.08;;;27.90;94.10;;;;;;5086688;28;20200;-43
2022/11/08 00:59:22;;;;;;;7.85;3.00;;;28.00;94.00;;;;;;5085794;28;20036;-48
2022/11/08 01:01:49;;;;;;;5.03;2.85;;;27.90;94.00;;;;;;5086688;28;20240;-38
2022/11/08 01:04:19;;;;;;;7.03;2.88;;;27.90;94.00;;;;;;5086351;28;20020;-44
2022/11/08 01:06:46;;;;;;;7.90;3.33;;;27.90;94.00;;;;;;5086727;28;20134;-38
2022/11/08 01:09:14;;;;;;;8.65;3.20;;;27.90;94.00;;;;;;5084694;28;20032;-41
2022/11/08 01:11:45;;;;;;;11.07;2.55;;;27.90;93.90;;;;;;5085686;28;20020;-44
2022/11/08 01:14:13;;;;;;;6.13;2.30;;;27.90;93.80;;;;;;5085940;28;20317;-39
2022/11/08 01:16:39;;;;;;;5.28;2.15;;;27.90;93.80;;;;;;5086507;28;20028;-42
2022/11/08 01:19:06;;;;;;;4.95;2.40;;;27.90;93.80;;;;;;5086180;28;20021;-39
2022/11/08 01:21:33;;;;;;;4.63;2.30;;;27.80;93.70;;;;;;5084834;28;20020;-43
2022/11/08 01:24:00;;;;;;;6.25;2.50;;;27.80;93.70;;;;;;5075093;28;20045;-40
2022/11/08 01:26:28;;;;;;;6.93;2.33;;;27.80;93.50;;;;;;5068146;28;20050;-40
2022/11/08 01:28:56;;;;;;;5.40;2.50;;;27.80;93.50;;;;;;5085937;28;20042;-52
2022/11/08 01:31:30;;;;;;;6.22;2.30;;;27.80;93.40;;;;;;5086445;28;20044;-41
2022/11/08 01:33:59;;;;;;;6.63;2.75;;;27.80;93.40;;;;;;5085789;28;20032;-42
2022/11/08 01:36:27;;;;;;;5.53;2.08;;;27.80;93.40;;;;;;5085932;28;20217;-42
2022/11/08 01:38:55;;;;;;;13.07;2.58;;;27.80;93.40;;;;;;5084138;28;20092;-38
2022/11/08 01:41:23;;;;;;;5.22;2.40;;;27.80;93.50;;;;;;5084606;28;20036;-38
2022/11/08 01:43:55;;;;;;;6.32;2.50;;;27.70;93.50;;;;;;5084750;28;20041;-44
2022/11/08 01:46:36;;;;;;;6.10;2.28;;;27.70;93.50;;;;;;5080498;28;20036;-43
2022/11/08 01:49:27;;;;;;;8.88;2.65;;;27.70;93.50;;;;;;5084094;28;20047;-39
2022/11/08 01:52:09;;;;;;;7.35;2.30;;;27.70;93.50;;;;;;5086197;28;20040;-42
2022/11/08 01:54:50;;;;;;;7.13;2.20;;;27.70;93.50;;;;;;5085624;28;20138;-43
2022/11/08 01:57:23;;;;;;;5.60;2.25;;;27.70;93.50;;;;;;5085406;28;20024;-41
2022/11/08 01:59:55;;;;;;;6.82;2.20;;;27.60;93.40;;;;;;5085497;28;20374;-40
2022/11/08 02:02:22;;;;;;;6.25;2.40;;;27.60;93.40;;;;;;5085433;28;20032;-39
2022/11/08 02:04:49;;;;;;;8.30;2.50;;;27.60;93.40;;;;;;5085540;28;20033;-43
2022/11/08 02:07:16;;;;;;;6.50;2.10;;;27.60;93.40;;;;;;5085961;28;20033;-40
2022/11/08 02:09:45;;;;;;;6.55;2.15;;;27.60;93.30;;;;;;5085285;28;20017;-38
2022/11/08 02:12:14;;;;;;;5.90;2.45;;;27.60;93.40;;;;;;5079859;28;20029;-41
2022/11/08 02:14:41;;;;;;;8.63;2.38;;;27.60;93.30;;;;;;5079385;28;20024;-40
2022/11/08 02:17:08;;;;;;;5.35;1.95;;;27.60;93.30;;;;;;5085727;28;20063;-42
2022/11/08 02:19:44;;;;;;;7.60;2.15;;;27.60;93.30;;;;;;5084923;28;20024;-44
2022/11/08 02:22:27;;;;;;;5.35;2.00;;;27.60;93.30;;;;;;5084689;28;20091;-45
2022/11/08 02:24:57;;;;;;;7.80;1.73;;;27.60;93.20;;;;;;5085080;28;20039;-41
2022/11/08 02:27:24;;;;;;;13.18;2.38;;;27.60;93.20;;;;;;5084806;28;20028;-43
2022/11/08 02:29:55;;;;;;;7.40;2.15;;;27.60;93.20;;;;;;5084898;28;20317;-44
2022/11/08 02:32:23;;;;;;;4.82;2.05;;;27.60;93.20;;;;;;5085130;28;20029;-41
2022/11/08 02:34:57;;;;;;;8.25;1.70;;;27.50;93.20;;;;;;5084615;28;20032;-39
2022/11/08 02:37:25;;;;;;;4.68;1.80;;;27.50;93.20;;;;;;5084876;28;20070;-42
2022/11/08 02:39:51;;;;;;;4.90;2.10;;;27.50;93.20;;;;;;5084788;28;20029;-39
2022/11/08 02:42:19;;;;;;;5.05;1.75;;;27.50;93.10;;;;;;5085115;28;20578;-46
2022/11/08 02:44:46;;;;;;;5.53;2.17;;;27.50;93.10;;;;;;5084667;28;20027;-46
2022/11/08 02:47:14;;;;;;;6.45;1.80;;;27.50;93.10;;;;;;5085096;28;20305;-38
2022/11/08 02:49:40;;;;;;;6.47;1.98;;;27.50;93.10;;;;;;5084769;28;20016;-43
2022/11/08 02:52:07;;;;;;;5.03;2.28;;;27.50;93.10;;;;;;5085013;28;20082;-40
2022/11/08 02:54:35;;;;;;;2.97;1.77;;;27.50;93.10;;;;;;5084479;28;20036;-39
2022/11/08 02:57:02;;;;;;;5.38;2.05;;;27.50;93.10;;;;;;5084711;28;20086;-39
2022/11/08 02:59:28;;;;;;;4.82;1.70;;;27.50;93.10;;;;;;5084480;28;20042;-43
2022/11/08 03:01:55;;;;;;;6.78;2.03;;;27.50;93.10;;;;;;5084815;28;20024;-42
2022/11/08 03:04:21;;;;;;;3.00;1.50;;;27.50;93.20;;;;;;5084129;28;20052;-43
2022/11/08 03:06:48;;;;;;;3.88;1.98;;;27.50;93.20;;;;;;5084691;28;20058;-42
2022/11/08 03:09:15;;;;;;;5.93;1.90;;;27.50;93.30;;;;;;5083294;28;20355;-38
2022/11/08 03:11:41;;;;;;;5.25;2.20;;;27.50;93.40;;;;;;5084412;28;20255;-42
2022/11/08 03:14:08;;;;;;;5.22;2.30;;;27.50;93.50;;;;;;5084124;28;20075;-41
2022/11/08 03:16:35;;;;;;;8.45;2.92;;;27.50;93.60;;;;;;5084619;28;20028;-40
2022/11/08 03:19:01;;;;;;;6.57;2.80;;;27.50;93.80;;;;;;5084029;28;20252;-43
2022/11/08 03:21:28;;;;;;;6.38;3.10;;;27.50;94.00;;;;;;5084660;28;20029;-39
2022/11/08 03:23:55;;;;;;;7.80;2.80;;;27.50;94.10;;;;;;5084028;28;20055;-42
2022/11/08 03:26:21;;;;;;;9.57;3.22;;;27.40;94.30;;;;;;5084234;28;20189;-44
2022/11/08 03:28:48;;;;;;;8.88;3.13;;;27.40;94.60;;;;;;5084004;28;20052;-40
2022/11/08 03:31:14;;;;;;;6.78;3.20;;;27.40;94.60;;;;;;5084286;28;20275;-38
2022/11/08 03:33:41;;;;;;;7.65;3.28;;;27.50;94.80;;;;;;5083779;28;20028;-39
2022/11/08 03:36:08;;;;;;;9.93;3.83;;;27.40;94.80;;;;;;5082926;28;20029;-38
2022/11/08 03:38:35;;;;;;;5.45;3.35;;;27.40;94.90;;;;;;5083870;28;20035;-44
2022/11/08 03:41:01;;;;;;;4.43;3.30;;;27.40;95.00;;;;;;5084079;28;20048;-43
2022/11/08 03:43:28;;;;;;;6.22;3.58;;;27.40;95.10;;;;;;5083906;28;20024;-43
2022/11/08 03:45:54;;;;;;;8.32;3.22;;;27.40;95.10;;;;;;5084080;28;20020;-38
2022/11/08 03:48:22;;;;;;;13.55;3.78;;;27.40;95.20;;;;;;5083850;28;20036;-39
2022/11/08 03:50:50;;;;;;;4.93;3.28;;;27.40;95.20;;;;;;5083873;28;20070;-41
2022/11/08 03:53:17;;;;;;;9.07;3.40;;;27.40;95.30;;;;;;5083734;28;20317;-45
2022/11/08 03:55:44;;;;;;;13.98;3.10;;;27.40;95.30;;;;;;5083783;28;20036;-38
2022/11/08 03:58:11;;;;;;;4.68;3.10;;;27.40;95.40;;;;;;5083645;28;20047;-44
2022/11/08 04:00:37;;;;;;;6.32;3.15;;;27.40;95.40;;;;;;5083786;28;20060;-38
2022/11/08 04:03:04;;;;;;;4.50;3.47;;;27.30;95.40;;;;;;5083683;28;20016;-42
2022/11/08 04:05:31;;;;;;;6.18;3.30;;;27.30;95.40;;;;;;5083633;28;20052;-39
2022/11/08 04:07:59;;;;;;;7.05;3.38;;;27.30;95.50;;;;;;5083531;28;20102;-45
2022/11/08 04:10:26;;;;;;;4.35;3.28;;;27.30;95.50;;;;;;5083731;28;20025;-42
2022/11/08 04:15:38;;;;;;;5.90;3.05;;;27.30;95.50;;;;;;5083669;28;20031;-38
2022/11/08 04:23:36;;;;;;;10.57;3.58;;;27.30;95.50;;;;;;5087351;28;20070;-44
2022/11/08 04:26:07;;;;;;;9.10;3.70;;;27.30;95.50;;;;;;5087553;28;20027;-38
2022/11/08 04:28:36;;;;;;;7.45;3.20;;;27.30;95.40;;;;;;5087354;28;20095;-47
2022/11/08 04:31:09;;;;;;;7.25;4.18;;;27.30;95.40;;;;;;5087535;28;20174;-39
2022/11/08 04:33:36;;;;;;;6.97;5.20;;;27.30;95.40;;;;;;5087339;28;20028;-41
2022/11/08 04:36:05;;;;;;;7.50;4.97;;;27.30;95.40;;;;;;5087163;28;20099;-40
2022/11/08 04:38:32;;;;;;;6.97;4.57;;;27.30;95.40;;;;;;5087029;28;20217;-43
2022/11/08 04:41:04;;;;;;;8.05;4.47;;;27.30;95.50;;;;;;5087261;28;20296;-48
2022/11/08 04:43:32;;;;;;;13.55;4.20;;;27.30;95.50;;;;;;5087053;28;20092;-45
2022/11/08 04:46:14;;;;;;;9.00;3.92;;;27.30;95.50;;;;;;5087087;28;20032;-43
2022/11/08 04:48:42;;;;;;;9.25;3.63;;;27.20;95.60;;;;;;5086800;28;20074;-41
2022/11/08 04:51:17;;;;;;;8.50;3.20;;;27.20;95.60;;;;;;5086706;28;20033;-38
2022/11/08 04:53:44;;;;;;;6.47;3.00;;;27.20;95.50;;;;;;5086610;28;20028;-39
2022/11/08 04:56:13;;;;;;;6.47;2.88;;;27.30;95.50;;;;;;5087232;28;20033;-40
2022/11/08 04:58:43;;;;;;;4.43;2.60;;;27.30;95.40;;;;;;5086807;28;20043;-48
2022/11/08 05:01:12;;;;;;;6.88;2.60;;;27.20;95.40;;;;;;5086841;28;20027;-40
2022/11/08 05:03:38;;;;;;;7.05;2.30;;;27.20;95.30;;;;;;5086600;28;20028;-38
2022/11/08 05:06:11;;;;;;;18.45;3.15;;;27.20;95.30;;;;;;5086849;28;20039;-38
2022/11/08 05:08:39;;;;;;;9.75;2.60;;;27.20;95.20;;;;;;5086424;28;20029;-40
2022/11/08 05:11:08;;;;;;;6.53;2.50;;;27.20;95.20;;;;;;5086677;28;20037;-39
2022/11/08 05:13:35;;;;;;;7.60;2.50;;;27.20;95.20;;;;;;5086332;28;20017;-39
2022/11/08 05:16:04;;;;;;;5.80;2.40;;;27.20;95.20;;;;;;5086575;28;20028;-41
2022/11/08 05:18:33;;;;;;;6.70;2.13;;;27.20;95.20;;;;;;5086427;28;20308;-42
2022/11/08 05:23:47;;;;;;;6.38;2.00;;;27.20;95.10;;;;;;5086283;28;20101;-38
2022/11/08 05:26:15;;;;;;;3.10;2.20;;;27.10;95.10;;;;;;5086515;28;20073;-40
2022/11/08 05:28:42;;;;;;;5.70;2.38;;;27.20;95.40;;;;;;5086255;28;20051;-40
2022/11/08 05:31:08;;;;;;;4.88;2.33;;;27.20;95.30;;;;;;5085364;28;20024;-41
2022/11/08 05:33:35;;;;;;;4.25;2.53;;;27.10;95.30;;;;;;5086095;28;20091;-41
2022/11/08 05:36:03;;;;;;;4.18;2.60;;;27.10;95.30;;;;;;5086180;28;20293;-40
2022/11/08 05:38:30;;;;;;;6.07;2.58;;;27.10;95.30;;;;;;5085975;28;20035;-39
2022/11/08 05:41:08;;;;;;;4.40;2.65;;;27.10;95.30;;;;;;5086280;28;20340;-40
2022/11/08 05:43:34;;;;;;;8.48;2.80;;;27.10;95.30;;;;;;5085876;28;20021;-46
2022/11/08 05:46:01;;;;;;;4.72;3.00;;;27.10;95.40;;;;;;5086127;28;20025;-39
2022/11/08 05:48:28;;;;;;;6.13;2.85;;;27.10;95.40;;;;;;5085785;28;20062;-39
2022/11/08 05:50:55;;;;;;;4.95;3.10;;;27.10;95.60;;;;;;5066040;28;20055;-46
2022/11/08 05:53:22;;;;;;;10.27;3.10;;;27.10;95.40;;;;;;5065661;28;20017;-45
2022/11/08 05:55:49;;;;;;;6.45;3.00;;;27.10;95.40;;;;;;5065652;28;20040;-41
2022/11/08 05:58:15;;;;;;;7.10;3.15;;;27.10;95.40;;;;;;5065554;28;20017;-38
2022/11/08 06:00:42;;;;;;;6.60;2.92;;;27.10;95.40;;;;;;5065694;28;20021;-38
2022/11/08 06:03:09;;;;;;;7.47;2.80;;;27.10;95.30;;;;;;5065421;28;20100;-41
2022/11/08 06:05:35;;;;;;;5.78;2.70;;;27.00;95.10;;;;;;5065658;28;20289;-39
2022/11/08 06:08:02;;;;;;;4.22;2.67;;;27.00;95.10;;;;;;5065400;28;20048;-38
2022/11/08 06:10:28;;;;;;;6.28;3.20;;;27.00;94.90;;;;;;5065482;28;20040;-39
2022/11/08 06:12:59;;;;;;;8.15;2.85;;;27.00;94.80;;;;;;5065253;28;20032;-39
2022/11/08 06:15:26;;;;;;;2.88;2.20;;;27.00;94.70;;;;;;5065232;28;20309;-38
2022/11/08 06:17:53;;;;;;;3.85;2.25;;;26.90;94.50;;;;;;5065225;28;20130;-41
2022/11/08 06:20:19;;;;;;;6.53;2.90;;;26.90;94.50;;;;;;5065228;28;20028;-40
2022/11/08 06:22:46;;;;;;;5.55;2.30;;;26.90;94.40;;;;;;5064863;28;20115;-44
2022/11/08 06:25:13;;;;;;;6.00;2.17;;;26.90;94.30;;;;;;5065098;28;20033;-39
2022/11/08 06:27:39;;;;;;;6.38;2.30;;;26.90;94.30;;;;;;5064989;28;20040;-39
2022/11/08 06:30:07;;;;;;;3.22;1.90;;;26.90;94.30;;;;;;5065066;28;20052;-39
2022/11/08 06:32:33;;;;;;;5.07;2.15;;;26.90;94.20;;;;;;5064942;28;20052;-43
2022/11/08 06:35:00;;;;;;;6.85;2.15;;;26.90;94.10;;;;;;5064914;28;20024;-38
2022/11/08 06:37:27;;;;;;;5.30;1.83;;;26.90;94.10;;;;;;5064777;28;20038;-39
2022/11/08 06:39:53;;;;;;;3.75;1.90;;;26.90;94.10;;;;;;5064808;28;20020;-42
2022/11/08 06:42:20;;;;;;;4.00;1.98;;;26.90;94.00;;;;;;5064492;28;20033;-38
2022/11/08 06:44:46;;;;;;;3.80;1.80;;;26.90;93.80;;;;;;5064745;28;20335;-44
2022/11/08 11:20:30;;;;;;;12.68;6.55;;;26.10;95.20;;;;;;5082136;28;20110;-45
2022/11/08 11:22:59;;;;;;;13.15;5.90;;;26.10;95.30;;;;;;5083734;28;20127;-42
2022/11/08 11:25:26;;;;;;;13.55;6.20;;;26.20;95.30;;;;;;5084116;28;20032;-48
2022/11/08 11:27:58;;;;;;;11.75;4.63;;;26.20;95.20;;;;;;5083317;28;20020;-43
2022/11/08 11:30:29;;;;;;;10.88;3.85;;;26.30;95.10;;;;;;5082475;28;20036;-46
2022/11/08 11:33:01;;;;;;;7.57;3.33;;;26.30;95.10;;;;;;5084094;28;20034;-43
2022/11/08 11:35:44;;;;;;;11.27;4.00;;;26.30;95.00;;;;;;5082781;28;20103;-42
2022/11/08 11:38:17;;;;;;;;;;;26.40;94.90;;;;;;5084758;28;20404;-42
2022/11/08 11:40:44;;;;;;;;;;;26.40;94.80;;;;;;5084224;28;19908;-48
2022/11/08 11:43:51;;;;;;;9.70;2.70;;;26.40;94.90;;;;;;5084125;28;19908;-43
2022/11/08 11:46:25;;;;;;;6.80;2.58;;;26.40;94.90;;;;;;5052528;28;20044;-41
2022/11/08 11:48:59;;;;;;;8.90;2.35;;;26.40;94.90;;;;;;5084093;28;20301;-40
2022/11/08 11:51:28;;;;;;;6.93;2.50;;;26.40;94.90;;;;;;5084497;28;20028;-40
2022/11/08 11:53:56;;;;;;;4.22;2.17;;;26.40;94.90;;;;;;5084494;28;20370;-38
2022/11/08 11:56:59;;;;;;;6.45;2.50;;;26.50;95.00;;;;;;5084240;28;20024;-38
2022/11/08 11:59:32;;;;;;;7.05;2.53;;;26.50;95.00;;;;;;5084322;28;20263;-44
2022/11/08 12:02:27;;;;;;;7.57;2.55;;;26.50;95.00;;;;;;5083111;28;20036;-39
2022/11/08 12:05:13;;;;;;;10.30;2.70;;;26.50;95.00;;;;;;5044073;28;20304;-40
2022/11/08 12:07:52;;;;;;;5.93;2.10;;;26.50;95.00;;;;;;5076441;28;20033;-38
2022/11/08 12:10:50;;;;;;;10.23;2.78;;;26.50;95.00;;;;;;5073300;28;20075;-38
2022/11/08 12:13:16;;;;;;;14.23;2.45;;;26.50;95.00;;;;;;5043819;28;20071;-40
2022/11/08 12:15:46;;;;;;;6.47;2.30;;;26.50;95.00;;;;;;5069913;28;20070;-44
2022/11/08 12:18:20;;;;;;;3.60;2.10;;;26.50;95.00;;;;;;5063584;28;20197;-42
2022/11/08 12:21:24;;;;;;;15.48;1.83;;;26.50;95.00;;;;;;5063561;28;20049;-39
2022/11/08 12:24:20;;;;;;;7.38;2.03;;;26.60;95.00;;;;;;5063613;28;20317;-43
2022/11/08 12:26:57;;;;;;;3.38;1.98;;;26.60;95.00;;;;;;5027140;28;20030;-43
2022/11/08 12:29:32;;;;;;;5.70;2.10;;;26.60;94.80;;;;;;5063393;28;20029;-43
2022/11/08 12:32:17;;;;;;;3.88;2.05;;;26.60;94.80;;;;;;5063893;28;20027;-45
2022/11/08 12:35:05;;;;;;;6.78;2.20;;;26.60;94.80;;;;;;5063129;28;20316;-39
2022/11/08 12:37:59;;;;;;;6.03;2.20;;;26.60;94.90;;;;;;5063509;28;20025;-41
2022/11/08 12:40:56;;;;;;;7.35;1.70;;;26.60;95.00;;;;;;5064110;28;20037;-39
2022/11/08 12:43:46;;;;;;;5.72;1.80;;;26.60;95.00;;;;;;5067139;28;20009;-39
2022/11/08 12:46:17;;;;;;;5.70;1.80;;;26.60;95.00;;;;;;5067231;28;20033;-42
2022/11/08 12:49:15;;;;;;;6.32;1.80;;;26.60;95.00;;;;;;5069593;28;20185;-41
2022/11/08 12:51:54;;;;;;;7.97;2.10;;;26.60;95.00;;;;;;5076225;28;20029;-47
2022/11/08 12:54:37;;;;;;;8.43;2.22;;;26.60;95.00;;;;;;5077025;28;20024;-43
2022/11/08 12:57:13;;;;;;;8.45;2.42;;;26.70;95.00;;;;;;5078173;28;20051;-42
2022/11/08 12:59:47;;;;;;;8.48;2.17;;;26.70;95.10;;;;;;5084840;28;20012;-41
2022/11/08 13:02:22;;;;;;;6.38;2.00;;;26.70;95.00;;;;;;5087056;28;20062;-40
2022/11/08 13:05:37;;;;;;;7.65;2.10;;;26.70;95.10;;;;;;5084672;28;20024;-42
2022/11/08 13:08:23;;;;;;;7.40;1.77;;;26.70;95.20;;;;;;5024739;28;20045;-44
2022/11/08 13:10:56;;;;;;;7.55;2.08;;;26.70;95.20;;;;;;5024724;28;20034;-47
2022/11/08 13:13:48;;;;;;;5.72;1.92;;;26.70;95.20;;;;;;5067341;28;20029;-39
2022/11/08 13:16:23;;;;;;;6.47;2.30;;;26.70;95.30;;;;;;5084082;28;20032;-43
2022/11/08 13:18:51;;;;;;;8.57;2.13;;;26.70;95.30;;;;;;5085822;28;20035;-42
2022/11/08 13:21:29;;;;;;;5.00;2.10;;;26.80;95.40;;;;;;5085824;28;20043;-44
2022/11/08 13:24:02;;;;;;;4.72;1.90;;;26.80;95.30;;;;;;5080570;28;20260;-43
2022/11/08 13:26:33;;;;;;;7.28;2.30;;;26.80;95.40;;;;;;5075286;28;20044;-43
2022/11/08 13:29:18;;;;;;;5.60;2.10;;;26.80;95.50;;;;;;5076229;28;20032;-43
2022/11/08 13:31:57;;;;;;;7.07;1.85;;;26.80;95.50;;;;;;5075680;28;20255;-45
2022/11/08 13:35:04;;;;;;;7.47;2.65;;;26.80;95.50;;;;;;5066152;28;20158;-42
2022/11/08 13:37:44;;;;;;;3.72;1.90;;;26.90;95.50;;;;;;5066150;28;20032;-42
2022/11/08 13:40:16;;;;;;;4.95;2.22;;;26.90;95.50;;;;;;5065952;28;20123;-45
2022/11/08 13:43:21;;;;;;;4.00;2.10;;;26.90;95.50;;;;;;5073259;28;20017;-45
2022/11/08 13:45:48;;;;;;;4.63;2.03;;;26.90;95.50;;;;;;5079824;28;20052;-47
2022/11/08 13:48:27;;;;;;;7.38;2.13;;;26.90;95.50;;;;;;5079654;28;20029;-46
2022/11/08 13:50:56;;;;;;;4.43;2.15;;;26.90;95.50;;;;;;5078777;28;20033;-45
2022/11/08 13:53:24;;;;;;;4.18;1.90;;;26.90;95.60;;;;;;5078612;28;20209;-47
2022/11/08 13:55:56;;;;;;;9.73;2.67;;;27.00;95.60;;;;;;5083201;28;20036;-48
2022/11/08 13:58:35;;;;;;;5.15;2.40;;;27.00;95.60;;;;;;5077264;28;20013;-47
2022/11/08 14:01:04;;;;;;;4.25;2.20;;;27.00;95.60;;;;;;5075893;28;20021;-45
2022/11/08 14:03:33;;;;;;;4.50;2.10;;;27.00;95.60;;;;;;5074398;28;20023;-47
2022/11/08 14:06:39;;;;;;;8.77;2.35;;;27.00;95.50;;;;;;5075505;28;20036;-49
2022/11/08 14:09:09;;;;;;;4.97;2.30;;;27.10;95.60;;;;;;5076130;28;20055;-49
2022/11/08 14:12:00;;;;;;;7.43;2.10;;;27.10;95.60;;;;;;5074826;28;20328;-48
2022/11/08 14:14:40;;;;;;;5.78;2.33;;;27.10;95.50;;;;;;5076692;28;20028;-43
2022/11/08 14:17:26;;;;;;;5.18;2.08;;;27.10;95.50;;;;;;5076555;28;20091;-49
2022/11/08 14:19:56;;;;;;;7.95;2.28;;;27.20;95.40;;;;;;5073874;28;20045;-43
2022/11/08 14:22:29;;;;;;;3.78;1.88;;;27.20;95.40;;;;;;5078279;28;20041;-44
2022/11/08 14:25:12;;;;;;;4.90;2.08;;;27.20;95.30;;;;;;5073738;28;20020;-44
2022/11/08 14:27:40;;;;;;;3.60;1.90;;;27.20;95.30;;;;;;5074353;28;20221;-40
2022/11/08 14:30:18;;;;;;;3.45;2.10;;;27.30;95.30;;;;;;5074473;28;20016;-42
2022/11/08 14:32:45;;;;;;;4.78;2.13;;;27.20;95.30;;;;;;5074786;28;20079;-44
2022/11/08 14:35:25;;;;;;;4.95;2.20;;;27.30;95.30;;;;;;5073732;28;20013;-45
2022/11/08 14:37:53;;;;;;;4.63;2.03;;;27.30;95.30;;;;;;5079720;28;20024;-43
2022/11/08 14:40:26;;;;;;;6.10;1.95;;;27.30;95.20;;;;;;5077126;28;20347;-41
2022/11/08 14:42:54;;;;;;;5.40;2.22;;;27.30;95.20;;;;;;5073946;28;20044;-42
2022/11/08 14:45:26;;;;;;;4.93;2.95;;;27.40;95.20;;;;;;5073969;28;20071;-48
2022/11/08 14:47:58;;;;;;;3.22;2.63;;;27.40;95.00;;;;;;5073896;28;20044;-47
2022/11/08 14:50:32;;;;;;;5.38;3.10;;;27.40;94.80;;;;;;5071880;28;20228;-42
2022/11/08 14:53:25;;;;;;;6.38;3.78;;;27.50;94.80;;;;;;5072686;28;20052;-45
2022/11/08 14:56:22;;;;;;;5.32;3.33;;;27.50;94.70;;;;;;5074461;28;20025;-42
2022/11/08 14:58:52;;;;;;;3.90;3.13;;;27.50;94.40;;;;;;5063077;28;20035;-49
2022/11/08 15:01:26;;;;;;;5.15;2.70;;;27.50;94.10;;;;;;5072978;28;20052;-44
2022/11/08 15:03:59;;;;;;;6.22;3.22;;;27.50;94.00;;;;;;5072821;28;20283;-45
2022/11/08 15:06:39;;;;;;;3.92;2.78;;;27.50;93.90;;;;;;5073544;28;20027;-44
2022/11/08 15:09:07;;;;;;;4.80;2.70;;;27.50;93.90;;;;;;5073247;28;20336;-46
2022/11/08 15:11:40;;;;;;;6.35;2.80;;;27.60;93.90;;;;;;5072832;28;20031;-46
2022/11/08 15:14:16;;;;;;;4.53;2.60;;;27.60;93.80;;;;;;5073071;28;20276;-43
2022/11/08 15:16:52;;;;;;;3.28;2.30;;;27.60;93.70;;;;;;5071992;28;20020;-43
2022/11/08 15:19:35;;;;;;;4.05;2.38;;;27.60;93.50;;;;;;5072287;28;20064;-44
2022/11/08 15:22:23;;;;;;;3.75;2.20;;;27.70;93.30;;;;;;5072209;28;20093;-41
2022/11/08 15:25:02;;;;;;;3.63;2.15;;;27.70;93.40;;;;;;5073655;28;20096;-41
2022/11/08 15:27:31;;;;;;;3.20;2.22;;;27.70;93.00;;;;;;5073214;28;20086;-42
2022/11/08 15:30:22;;;;;;;3.85;2.45;;;27.70;93.00;;;;;;5072008;28;20036;-49
2022/11/08 15:32:49;;;;;;;4.65;2.25;;;27.80;93.10;;;;;;5072905;28;20028;-40
2022/11/08 15:35:36;;;;;;;2.60;1.80;;;27.80;93.10;;;;;;5071748;28;20036;-47
2022/11/08 15:38:06;;;;;;;3.20;2.03;;;27.80;93.00;;;;;;5074416;28;20054;-41
2022/11/08 15:40:37;;;;;;;3.33;2.10;;;27.80;92.80;;;;;;5073872;28;20040;-42
2022/11/08 15:43:05;;;;;;;3.25;2.20;;;27.80;92.90;;;;;;5074062;28;20016;-44
2022/11/08 15:45:34;;;;;;;6.75;1.92;;;27.90;92.90;;;;;;5064011;28;20041;-46
2022/11/08 15:48:20;;;;;;;4.28;2.15;;;27.90;92.80;;;;;;5067309;28;20043;-41
2022/11/08 15:50:47;;;;;;;4.07;1.98;;;27.90;92.70;;;;;;5081103;28;20047;-48
2022/11/08 15:53:14;;;;;;;6.07;2.10;;;27.90;92.50;;;;;;5077942;28;20029;-41
2022/11/08 15:56:00;;;;;;;3.75;1.90;;;28.00;92.50;;;;;;5075321;28;20036;-48
2022/11/08 15:58:35;;;;;;;5.30;2.40;;;28.00;92.60;;;;;;5073321;28;20029;-43
2022/11/08 16:01:03;;;;;;;4.00;2.17;;;28.00;92.60;;;;;;5081616;28;20025;-40
2022/11/08 16:03:32;;;;;;;4.28;2.30;;;28.10;92.60;;;;;;5080864;28;20060;-40
2022/11/08 16:05:58;;;;;;;2.88;1.70;;;28.10;92.60;;;;;;5079463;28;20115;-39
2022/11/08 16:08:25;;;;;;;9.65;2.20;;;28.10;92.30;;;;;;5074602;28;20351;-40
2022/11/08 16:10:56;;;;;;;4.93;2.38;;;28.10;92.30;;;;;;5064277;28;20033;-41
2022/11/08 16:13:27;;;;;;;4.17;2.10;;;28.20;92.30;;;;;;5065107;28;20033;-39
2022/11/08 16:15:54;;;;;;;6.05;2.33;;;28.20;91.60;;;;;;5078970;28;20362;-41
2022/11/08 16:18:20;;;;;;;4.03;2.22;;;28.20;91.80;;;;;;5067539;28;20032;-40
2022/11/08 16:20:47;;;;;;;6.53;2.20;;;28.20;91.90;;;;;;5077423;28;20344;-39
2022/11/08 16:23:14;;;;;;;5.97;2.38;;;28.30;92.00;;;;;;5086978;28;20312;-43
2022/11/08 16:25:42;;;;;;;5.60;2.10;;;28.30;92.00;;;;;;5082623;28;20029;-41
2022/11/08 16:28:33;;;;;;;9.57;2.90;;;28.30;92.10;;;;;;5082193;28;20057;-43
2022/11/08 16:31:07;;;;;;;33.13;4.60;;;28.40;92.10;;;;;;5082706;28;20292;-39
2022/11/08 16:33:34;;;;;;;22.02;4.00;;;28.40;91.90;;;;;;5078702;28;20308;-46
2022/11/08 16:36:21;;;;;;;24.15;4.70;;;28.40;91.80;;;;;;5079068;28;20036;-42
2022/11/08 16:38:56;;;;;;;17.35;4.07;;;28.40;92.00;;;;;;5082996;28;20024;-42
2022/11/08 16:41:26;;;;;;;21.95;3.90;;;28.40;92.10;;;;;;5083837;28;20209;-45
2022/11/08 16:43:52;;;;;;;21.02;3.72;;;28.40;92.00;;;;;;5078929;28;20316;-40
2022/11/08 16:46:22;;;;;;;17.45;3.75;;;28.40;92.00;;;;;;5081159;28;20028;-38
2022/11/08 16:49:00;;;;;;;18.45;3.85;;;28.50;92.10;;;;;;5083641;28;20295;-38
2022/11/08 16:51:27;;;;;;;18.70;4.65;;;28.50;92.20;;;;;;5077041;28;20029;-44
2022/11/08 16:53:53;;;;;;;28.13;5.05;;;28.50;92.60;;;;;;5068495;28;20228;-41
2022/11/08 16:56:20;;;;;;;33.08;5.40;;;28.50;92.90;;;;;;5087107;28;20032;-47
2022/11/08 16:58:47;;;;;;;31.38;5.75;;;28.50;93.10;;;;;;5086813;28;20325;-43
2022/11/08 17:01:20;;;;;;;21.80;5.43;;;28.50;93.50;;;;;;5082680;28;20348;-40
2022/11/08 17:03:47;;;;;;;28.23;5.45;;;28.50;93.60;;;;;;5083243;28;20032;-40
2022/11/08 17:06:16;;;;;;;23.98;4.47;;;28.50;93.70;;;;;;5079008;28;20211;-40
2022/11/08 17:08:49;;;;;;;15.10;5.05;;;28.50;94.20;;;;;;5081549;28;20055;-39
2022/11/08 17:11:21;;;;;;;27.02;10.15;;;28.50;94.10;;;;;;5086616;28;20378;-40
2022/11/08 17:13:49;;;;;;;23.80;12.18;;;28.50;94.00;;;;;;5079093;28;20314;-40
2022/11/08 17:16:17;;;;;;;25.85;18.25;;;28.50;94.10;;;;;;5083772;28;20037;-42
2022/11/08 17:18:44;;;;;;;17.92;12.10;;;28.50;93.70;;;;;;5066043;28;20021;-41
2022/11/08 17:21:13;;;;;;;14.27;10.38;;;28.50;93.30;;;;;;5066763;28;20032;-41
2022/11/08 17:23:41;;;;;;;11.38;6.03;;;28.50;92.60;;;;;;5066275;28;20107;-38
2022/11/08 17:26:10;;;;;;;10.00;4.40;;;28.50;92.90;;;;;;5074277;28;20040;-40
2022/11/08 17:28:37;;;;;;;12.95;3.90;;;28.50;92.70;;;;;;5085261;28;20020;-43
2022/11/08 17:31:14;;;;;;;12.27;4.30;;;28.50;92.70;;;;;;5084735;28;20309;-46
2022/11/08 17:33:40;;;;;;;6.05;3.70;;;28.50;92.70;;;;;;5074677;28;20029;-40
2022/11/08 17:36:09;;;;;;;5.03;3.22;;;28.50;92.60;;;;;;5065956;28;20056;-40
2022/11/08 17:38:37;;;;;;;18.30;3.03;;;28.40;92.40;;;;;;5065873;28;20221;-40
2022/11/08 17:41:06;;;;;;;7.28;3.33;;;28.50;92.30;;;;;;5065948;28;20354;-42
2022/11/08 17:43:33;;;;;;;3.28;2.30;;;28.50;92.40;;;;;;5067697;28;20059;-45
2022/11/08 17:46:02;;;;;;;4.53;2.65;;;28.50;92.30;;;;;;5080008;28;20131;-41
2022/11/08 17:48:30;;;;;;;5.70;2.67;;;28.40;92.50;;;;;;5071884;28;20206;-40
2022/11/08 17:50:56;;;;;;;5.70;2.55;;;28.50;92.60;;;;;;5064546;28;20029;-43
2022/11/08 17:53:25;;;;;;;4.80;2.53;;;28.40;92.50;;;;;;5065618;28;20025;-40
2022/11/08 17:55:59;;;;;;;3.45;2.30;;;28.50;92.60;;;;;;5065736;28;20025;-41
2022/11/08 17:58:27;;;;;;;4.18;2.05;;;28.40;92.80;;;;;;5064640;28;20119;-39
2022/11/08 18:00:55;;;;;;;3.65;2.20;;;28.50;93.00;;;;;;5065836;28;20084;-41
2022/11/08 18:03:23;;;;;;;4.78;3.03;;;28.40;92.90;;;;;;5065658;28;20094;-39